Time;durP1;ratioP1;P1;durP2;ratioP2;P2;SDS_P1;SDS_P2;PMS_P1;PMS_P2;Temp;Humidity;BMP_temperature;BMP_pressure;BME280_temperature;BME280_humidity;BME280_pressure;Samples;Min_cycle;Max_cycle;Signal;HPM_P1;HPM_P2
2022/04/11 00:02:15;;;;;;;5.10;2.75;;;;;;;4.49;76.31;99474.47;5073780;28;20048;-78
2022/04/11 00:04:43;;;;;;;5.45;2.42;;;;;;;4.38;76.35;99456.13;5073862;28;20052;-78
2022/04/11 00:07:09;;;;;;;3.97;2.67;;;;;;;4.55;76.41;99497.88;5073712;28;20080;-78
2022/04/11 00:09:36;;;;;;;5.20;2.47;;;;;;;4.55;76.59;99479.78;5073357;28;20052;-77
2022/04/11 00:12:04;;;;;;;4.50;2.60;;;;;;;4.59;76.79;99480.72;5072164;28;20105;-78
2022/04/11 00:14:31;;;;;;;3.72;2.50;;;;;;;4.48;76.33;99457.22;5073215;28;20056;-77
2022/04/11 00:16:57;;;;;;;5.82;2.25;;;;;;;4.54;76.53;99483.22;5073443;28;20079;-78
2022/04/11 00:19:25;;;;;;;4.32;2.47;;;;;;;4.43;76.43;99462.28;5056157;28;20053;-78
2022/04/11 00:21:52;;;;;;;3.92;2.30;;;;;;;4.44;76.69;99464.03;5073314;28;20086;-77
2022/04/11 00:24:19;;;;;;;3.95;2.60;;;;;;;4.58;76.33;99487.63;5072866;28;20052;-77
2022/04/11 00:26:46;;;;;;;3.20;1.98;;;;;;;4.59;76.64;99491.06;5072788;28;20082;-77
2022/04/11 00:29:13;;;;;;;3.83;2.30;;;;;;;4.45;76.70;99460.63;5072299;28;20063;-77
2022/04/11 00:31:40;;;;;;;5.13;2.15;;;;;;;4.63;76.79;99493.75;5072817;28;20054;-77
2022/04/11 00:34:07;;;;;;;3.83;1.85;;;;;;;4.63;76.08;99487.72;5072885;28;20063;-77
2022/04/11 00:36:34;;;;;;;2.47;1.90;;;;;;;4.55;76.57;99481.50;5071803;28;20048;-77
2022/04/11 00:39:02;;;;;;;3.70;2.10;;;;;;;4.37;77.08;99475.09;5071433;28;20063;-77
2022/04/11 00:41:29;;;;;;;3.90;2.10;;;;;;;4.46;76.75;99501.13;5054753;28;20059;-78
2022/04/11 00:43:57;;;;;;;4.32;1.90;;;;;;;4.26;76.72;99477.44;5071904;28;20081;-77
2022/04/11 00:46:23;;;;;;;2.35;1.80;;;;;;;4.37;77.35;99497.50;5070971;28;20056;-77
2022/04/11 00:48:50;;;;;;;2.92;1.60;;;;;;;4.40;77.40;99500.13;5072797;28;20052;-77
2022/04/11 00:51:23;;;;;;;2.25;1.90;;;;;;;4.40;76.99;99493.25;5072594;28;20098;-77
2022/04/11 00:53:52;;;;;;;3.50;1.73;;;;;;;4.34;77.10;99487.94;5073111;28;20106;-77
2022/04/11 00:56:20;;;;;;;4.07;2.00;;;;;;;4.28;76.85;99469.69;5072542;28;20150;-77
2022/04/11 00:58:47;;;;;;;2.25;1.98;;;;;;;4.39;77.12;99500.97;5072706;28;20056;-78
2022/04/11 01:01:16;;;;;;;3.55;1.90;;;;;;;4.41;77.05;99488.94;5072410;28;20118;-77
2022/04/11 01:03:44;;;;;;;3.28;2.00;;;;;;;4.45;77.62;99499.41;5072548;28;20106;-77
2022/04/11 01:06:11;;;;;;;5.15;2.35;;;;;;;4.53;77.16;99493.53;5072467;28;20061;-78
2022/04/11 01:08:38;;;;;;;2.15;1.80;;;;;;;4.45;76.98;99488.16;5072650;28;20053;-77
2022/04/11 01:11:06;;;;;;;1.83;1.70;;;;;;;4.46;77.37;99477.88;5072217;28;20048;-77
2022/04/11 01:13:33;;;;;;;2.47;1.80;;;;;;;4.38;76.99;99463.03;5071352;28;20509;-78
2022/04/11 01:16:03;;;;;;;3.35;1.80;;;;;;;4.39;76.87;99468.22;5071682;28;20056;-78
2022/04/11 01:18:38;;;;;;;2.83;1.83;;;;;;;4.43;77.68;99466.56;5072533;28;20076;-77
2022/04/11 01:21:08;;;;;;;4.80;2.30;;;;;;;4.44;77.44;99460.56;5072900;28;20151;-78
2022/04/11 01:23:36;;;;;;;2.83;2.03;;;;;;;4.32;77.21;99440.47;5072551;28;20049;-77
2022/04/11 01:26:05;;;;;;;2.90;2.20;;;;;;;4.46;77.05;99469.25;5071591;28;20520;-78
2022/04/11 01:28:37;;;;;;;2.40;2.20;;;;;;;4.45;77.10;99462.31;5071342;28;20080;-78
2022/04/11 01:31:06;;;;;;;2.92;2.20;;;;;;;4.37;77.70;99443.19;5071541;28;20056;-78
2022/04/11 01:33:34;;;;;;;5.18;2.50;;;;;;;4.54;77.35;99465.09;5071687;28;20143;-77
2022/04/11 01:36:04;;;;;;;2.17;1.98;;;;;;;4.52;77.15;99464.19;5071842;28;20532;-77
2022/04/11 01:38:31;;;;;;;2.15;1.95;;;;;;;4.43;77.17;99467.47;5072821;28;20094;-77
2022/04/11 01:40:58;;;;;;;2.58;2.00;;;;;;;4.49;77.09;99474.47;5074841;28;20052;-77
2022/04/11 01:43:26;;;;;;;2.30;2.10;;;;;;;4.47;77.04;99469.28;5076130;28;20532;-77
2022/04/11 01:45:54;;;;;;;2.40;1.90;;;;;;;4.48;77.18;99472.72;5074919;28;20071;-77
2022/04/11 01:48:33;;;;;;;2.03;1.80;;;;;;;4.50;77.20;99468.47;5074640;28;20056;-77
2022/04/11 01:51:01;;;;;;;2.20;1.90;;;;;;;4.36;77.69;99434.53;5075913;28;20064;-78
2022/04/11 01:53:28;;;;;;;2.20;1.67;;;;;;;4.30;77.55;99430.13;5076325;28;20055;-79
2022/04/11 01:55:55;;;;;;;2.90;1.73;;;;;;;4.48;77.14;99470.16;5074779;28;20432;-78
2022/04/11 01:58:22;;;;;;;3.38;2.20;;;;;;;4.53;77.21;99470.25;5074224;28;20154;-78
2022/04/11 02:00:49;;;;;;;3.33;2.00;;;;;;;4.45;77.18;99450.28;5074948;28;20051;-78
2022/04/11 02:03:16;;;;;;;2.50;1.98;;;;;;;4.46;77.17;99459.75;5076115;28;20052;-78
2022/04/11 02:05:44;;;;;;;2.70;1.85;;;;;;;4.37;77.33;99451.81;5075250;28;20501;-77
2022/04/11 02:08:11;;;;;;;3.35;1.90;;;;;;;4.49;76.92;99469.28;5075045;28;20079;-79
2022/04/11 02:10:39;;;;;;;2.25;2.13;;;;;;;4.46;77.14;99452.00;5074795;28;20148;-77
2022/04/11 02:13:07;;;;;;;2.78;2.00;;;;;;;4.60;77.23;99465.22;5074761;28;20117;-78
2022/04/11 02:15:34;;;;;;;2.78;1.77;;;;;;;4.75;77.10;99468.97;5074475;28;20575;-78
2022/04/11 02:18:02;;;;;;;2.30;2.00;;;;;;;4.77;76.69;99462.97;5075783;28;20056;-77
2022/04/11 02:20:30;;;;;;;2.10;1.90;;;;;;;4.68;76.54;99460.22;5074407;28;20049;-77
2022/04/11 02:22:59;;;;;;;2.70;2.03;;;;;;;4.64;76.56;99466.16;5075829;28;20053;-78
2022/04/11 02:25:27;;;;;;;4.25;1.90;;;;;;;4.64;76.64;99481.69;5075739;28;20053;-78
2022/04/11 02:27:59;;;;;;;1.83;1.40;;;;;;;4.53;76.40;99463.34;5074309;28;20052;-78
2022/04/11 02:30:26;;;;;;;;;;;;;;;4.52;76.55;99469.38;5074616;28;20498;-78
2022/04/11 02:32:54;;;;;;;2.03;1.80;;;;;;;4.66;76.84;99478.28;5074647;28;19993;-78
2022/04/11 02:35:24;;;;;;;2.10;1.60;;;;;;;4.76;76.28;99489.72;5074951;28;20052;-78
2022/04/11 02:37:52;;;;;;;3.05;1.70;;;;;;;4.71;76.45;99476.69;5090989;28;20307;-78
2022/04/11 02:40:20;;;;;;;3.33;2.03;;;;;;;4.74;76.49;99477.59;5111085;28;20048;-77
2022/04/11 02:43:06;;;;;;;2.15;1.95;;;;;;;4.64;76.76;99469.59;5114353;28;20092;-79
2022/04/11 02:45:36;;;;;;;2.20;2.00;;;;;;;4.71;76.57;99471.50;5101290;28;20052;-78
2022/04/11 02:48:06;;;;;;;1.90;1.80;;;;;;;4.78;76.53;99469.03;5093962;28;20097;-77
2022/04/11 02:50:38;;;;;;;2.80;1.88;;;;;;;4.84;76.38;99474.31;5093306;28;20568;-77
2022/04/11 02:53:09;;;;;;;;;;;;;;;4.80;76.13;99480.31;5095184;28;20087;-78
2022/04/11 02:55:35;;;;;;;2.65;2.20;;;;;;;4.76;75.96;99465.56;5093548;28;19985;-78
2022/04/11 02:58:02;;;;;;;2.22;2.03;;;;;;;4.85;76.58;99474.34;5093226;28;20195;-78
2022/04/11 03:00:29;;;;;;;3.80;1.63;;;;;;;4.94;76.04;99476.25;5093475;28;20044;-78
2022/04/11 03:02:58;;;;;;;2.47;1.90;;;;;;;4.95;76.03;99475.44;5094000;28;20051;-78
2022/04/11 03:05:30;;;;;;;3.35;2.10;;;;;;;5.05;75.73;99492.88;5077324;28;20051;-78
2022/04/11 03:07:58;;;;;;;2.15;1.92;;;;;;;4.97;74.92;99458.22;5093390;28;20163;-77
2022/04/11 03:10:25;;;;;;;3.70;2.38;;;;;;;5.22;75.46;99497.50;5093256;28;20063;-77
2022/04/11 03:12:57;;;;;;;3.30;2.20;;;;;;;5.20;74.97;99479.34;5090502;28;20125;-78
2022/04/11 03:15:25;;;;;;;3.60;1.88;;;;;;;5.13;75.31;99493.03;5079588;28;20052;-76
2022/04/11 03:17:51;;;;;;;2.17;1.98;;;;;;;5.04;75.41;99485.09;5093957;28;20449;-78
2022/04/11 03:20:20;;;;;;;2.53;2.03;;;;;;;4.95;75.35;99487.47;5093160;28;20504;-78
2022/04/11 03:22:47;;;;;;;2.03;1.83;;;;;;;4.83;75.50;99472.59;5093220;28;20055;-78
2022/04/11 03:25:14;;;;;;;3.15;2.20;;;;;;;4.83;75.92;99480.34;5093198;28;20047;-78
2022/04/11 03:27:42;;;;;;;2.72;2.50;;;;;;;4.77;75.57;99485.41;5092920;28;20091;-77
2022/04/11 03:30:11;;;;;;;2.80;2.47;;;;;;;4.64;75.81;99461.84;5092760;28;20146;-78
2022/04/11 03:32:39;;;;;;;3.28;2.47;;;;;;;4.76;76.57;99486.25;5056471;28;20048;-77
2022/04/11 03:35:09;;;;;;;3.72;2.78;;;;;;;4.76;76.32;99479.34;5072709;28;20044;-77
2022/04/11 03:37:38;;;;;;;2.92;2.72;;;;;;;4.77;75.66;99467.28;5072443;28;20127;-78
2022/04/11 03:40:19;;;;;;;3.97;3.40;;;;;;;4.74;76.35;99475.88;5072385;28;20082;-78
2022/04/11 03:42:47;;;;;;;4.97;3.20;;;;;;;4.76;75.95;99470.72;5072197;28;20135;-77
2022/04/11 03:45:14;;;;;;;3.42;3.13;;;;;;;4.80;76.65;99464.78;5072291;28;20070;-77
2022/04/11 03:47:44;;;;;;;5.38;3.58;;;;;;;4.81;75.74;99466.50;5072176;28;20045;-77
2022/04/11 03:50:13;;;;;;;3.95;3.28;;;;;;;4.60;76.04;99443.66;5072258;28;20052;-77
2022/04/11 03:52:41;;;;;;;3.67;3.10;;;;;;;4.70;76.01;99467.16;5072239;28;20044;-78
2022/04/11 03:55:09;;;;;;;3.45;2.88;;;;;;;4.60;76.16;99448.81;5072445;28;20067;-77
2022/04/11 03:57:41;;;;;;;3.15;2.67;;;;;;;4.65;76.18;99454.97;5072396;28;20091;-78
2022/04/11 04:00:09;;;;;;;4.53;3.45;;;;;;;4.61;76.21;99466.97;5075046;28;20143;-78
2022/04/11 04:03:09;;;;;;;3.60;3.28;;;;;;;4.58;76.15;99443.63;5071963;28;20059;-77
2022/04/11 04:05:44;;;;;;;3.22;2.85;;;;;;;4.62;76.35;99435.06;5073304;28;20056;-79
2022/04/11 04:08:17;;;;;;;3.63;3.30;;;;;;;4.55;76.35;99419.41;5073523;28;20048;-78
2022/04/11 04:10:55;;;;;;;5.32;3.83;;;;;;;4.58;76.88;99429.81;5072637;28;20055;-80
2022/04/11 04:13:23;;;;;;;5.47;3.65;;;;;;;4.50;76.76;99415.00;5072451;28;20091;-79
2022/04/11 04:15:50;;;;;;;5.72;4.00;;;;;;;4.55;76.84;99416.81;5080374;28;20097;-80
2022/04/11 04:18:18;;;;;;;7.03;4.63;;;;;;;4.54;76.58;99413.38;5076889;28;20049;-80
2022/04/11 04:20:45;;;;;;;6.70;4.28;;;;;;;4.50;76.38;99401.22;5055561;28;20494;-79
2022/04/11 04:23:12;;;;;;;4.93;4.22;;;;;;;4.51;76.40;99392.59;5073766;28;20090;-77
2022/04/11 04:25:39;;;;;;;4.47;3.25;;;;;;;4.49;76.95;99364.09;5073240;28;20060;-77
2022/04/11 04:28:06;;;;;;;4.03;3.20;;;;;;;4.22;76.47;99336.00;5072029;28;20075;-78
2022/04/11 04:30:35;;;;;;;3.60;3.22;;;;;;;4.51;76.65;99369.31;5039179;28;20094;-79
2022/04/11 04:33:02;;;;;;;3.45;3.03;;;;;;;4.45;76.56;99358.84;5072017;28;20056;-77
2022/04/11 04:35:30;;;;;;;3.08;2.78;;;;;;;4.60;76.17;99361.72;5054670;28;20435;-78
2022/04/11 04:38:03;;;;;;;4.72;2.97;;;;;;;4.56;76.01;99347.03;5056613;28;20091;-77
2022/04/11 04:40:38;;;;;;;4.32;2.97;;;;;;;4.60;76.00;99359.13;5072366;28;20058;-77
2022/04/11 04:43:08;;;;;;;3.00;2.50;;;;;;;4.44;75.94;99359.69;5072990;28;20098;-76
2022/04/11 04:45:36;;;;;;;2.28;2.10;;;;;;;4.41;76.50;99373.44;5091575;28;20078;-78
2022/04/11 04:48:29;;;;;;;2.67;2.28;;;;;;;4.30;76.15;99339.63;5085449;28;20086;-77
2022/04/11 04:50:56;;;;;;;2.38;1.92;;;;;;;4.38;76.57;99364.75;5092204;28;20052;-78
2022/04/11 04:53:25;;;;;;;2.67;2.00;;;;;;;4.31;76.87;99325.81;5091519;28;20472;-77
2022/04/11 04:55:58;;;;;;;8.05;2.45;;;;;;;4.46;76.65;99340.78;5092392;28;20071;-79
2022/04/11 04:58:26;;;;;;;2.83;2.25;;;;;;;4.52;75.93;99345.22;5091969;28;20114;-77
2022/04/11 05:00:53;;;;;;;4.25;2.58;;;;;;;4.53;76.45;99328.84;5091995;28;20055;-78
2022/04/11 05:03:23;;;;;;;2.95;2.60;;;;;;;4.53;76.01;99317.63;5092316;28;20083;-81
2022/04/11 05:05:51;;;;;;;7.38;2.15;;;;;;;4.58;75.21;99300.47;5091947;28;20044;-78
2022/04/11 05:08:18;;;;;;;3.70;2.70;;;;;;;4.67;75.77;99290.31;5091312;28;20047;-78
2022/04/11 05:10:46;;;;;;;5.32;2.67;;;;;;;4.83;75.71;99292.28;5091926;28;20054;-78
2022/04/11 05:13:14;;;;;;;2.50;2.30;;;;;;;4.89;75.03;99300.16;5091942;28;20146;-79
2022/04/11 05:15:42;;;;;;;4.13;2.50;;;;;;;4.92;74.55;99318.31;5094807;28;20517;-78
2022/04/11 05:18:15;;;;;;;2.22;2.00;;;;;;;4.93;74.36;99325.25;5079532;28;20055;-81
2022/04/11 05:20:43;;;;;;;3.10;2.10;;;;;;;4.90;73.99;99316.56;5095537;28;20062;-77
2022/04/11 05:23:10;;;;;;;3.05;1.77;;;;;;;4.90;74.09;99304.53;5096033;28;20048;-80
2022/04/11 05:25:40;;;;;;;3.55;1.83;;;;;;;4.97;73.48;99282.19;5097830;28;20055;-78
2022/04/11 05:28:08;;;;;;;1.98;1.52;;;;;;;5.10;73.14;99298.81;5079008;28;20051;-80
2022/04/11 05:30:48;;;;;;;4.85;1.83;;;;;;;5.07;73.01;99272.84;5080601;28;20048;-79
2022/04/11 05:33:15;;;;;;;1.58;1.48;;;;;;;5.08;72.76;99264.25;5095586;28;20051;-76
2022/04/11 05:35:42;;;;;;;2.45;1.85;;;;;;;5.05;72.71;99231.38;5095265;28;20491;-78
2022/04/11 05:38:14;;;;;;;2.67;1.60;;;;;;;5.07;72.73;99242.63;5095566;28;20063;-81
2022/04/11 05:40:43;;;;;;;2.60;1.70;;;;;;;5.09;72.45;99259.06;5062171;28;20082;-78
2022/04/11 05:43:16;;;;;;;1.20;1.00;;;;;;;4.84;72.35;99226.78;5095505;28;20120;-79
2022/04/11 05:45:43;;;;;;;3.38;1.48;;;;;;;4.95;72.80;99262.28;5095992;28;20459;-80
2022/04/11 05:48:10;;;;;;;1.30;1.20;;;;;;;4.94;72.84;99258.81;5095889;28;20047;-77
2022/04/11 05:50:38;;;;;;;1.58;1.48;;;;;;;4.91;72.56;99248.44;5095062;28;20056;-76
2022/04/11 05:53:05;;;;;;;1.92;1.45;;;;;;;4.90;72.97;99269.97;5095485;28;20131;-78
2022/04/11 05:55:33;;;;;;;1.58;1.35;;;;;;;4.87;72.88;99231.13;5095271;28;20056;-81
2022/04/11 05:58:00;;;;;;;1.38;1.27;;;;;;;4.92;72.94;99247.59;5094850;28;20139;-78
2022/04/11 06:00:28;;;;;;;3.22;1.17;;;;;;;4.78;72.84;99254.25;5095046;28;20051;-79
2022/04/11 06:02:54;;;;;;;0.93;0.93;;;;;;;4.71;73.15;99236.03;5096216;28;20044;-78
2022/04/11 06:05:22;;;;;;;2.00;1.10;;;;;;;4.62;73.42;99235.88;5076560;28;20143;-79
2022/04/11 06:07:49;;;;;;;1.58;1.10;;;;;;;4.55;73.99;99225.41;5093298;28;20052;-78
2022/04/11 06:10:18;;;;;;;1.35;1.25;;;;;;;4.67;73.88;99260.13;5075610;28;20056;-78
2022/04/11 06:12:45;;;;;;;1.52;1.27;;;;;;;4.65;73.40;99241.09;5075276;28;20053;-78
2022/04/11 06:15:17;;;;;;;3.53;1.38;;;;;;;4.64;73.85;99251.41;5095302;28;20044;-78
2022/04/11 06:17:48;;;;;;;3.05;1.70;;;;;;;4.42;74.54;99206.22;5085936;28;20082;-77
2022/04/11 06:20:17;;;;;;;2.63;1.63;;;;;;;4.62;74.14;99233.28;5078275;28;20143;-76
2022/04/11 06:22:46;;;;;;;2.87;1.50;;;;;;;4.55;74.54;99215.06;5077721;28;20052;-77
2022/04/11 06:25:13;;;;;;;1.98;1.17;;;;;;;4.49;74.61;99215.81;5094933;28;20296;-76
2022/04/11 06:27:40;;;;;;;2.00;1.67;;;;;;;4.40;74.71;99185.50;5095315;28;20052;-78
2022/04/11 06:30:08;;;;;;;2.45;1.30;;;;;;;4.55;74.89;99213.34;5096752;28;20105;-79
2022/04/11 06:32:38;;;;;;;2.63;1.95;;;;;;;4.48;75.45;99175.28;5100096;28;20051;-77
2022/04/11 06:35:06;;;;;;;2.90;1.80;;;;;;;4.68;74.70;99194.56;5090964;28;20075;-77
2022/04/11 06:37:34;;;;;;;2.05;1.25;;;;;;;4.73;74.66;99194.66;5091462;28;20052;-78
2022/04/11 06:40:02;;;;;;;2.97;1.40;;;;;;;4.72;75.07;99180.00;5093069;28;20056;-79
2022/04/11 06:42:32;;;;;;;2.15;1.35;;;;;;;4.72;74.35;99188.59;5098028;28;20059;-79
2022/04/11 06:45:01;;;;;;;3.50;1.80;;;;;;;4.84;74.88;99190.53;5098295;28;20584;-77
2022/04/11 06:47:31;;;;;;;3.75;1.70;;;;;;;4.85;74.44;99212.09;5096649;28;20055;-76
2022/04/11 06:49:59;;;;;;;2.33;1.67;;;;;;;4.71;74.88;99193.75;5093914;28;20052;-78
2022/04/11 06:52:26;;;;;;;4.53;2.00;;;;;;;4.59;74.48;99194.44;5091055;28;20048;-79
2022/04/11 06:54:53;;;;;;;2.28;1.80;;;;;;;4.76;75.33;99230.06;5093504;28;20056;-79
2022/04/11 06:57:20;;;;;;;2.08;1.88;;;;;;;4.84;74.79;99250.06;5093120;28;20056;-77
2022/04/11 06:59:47;;;;;;;3.35;1.90;;;;;;;4.86;74.79;99250.06;5094592;28;20074;-77
2022/04/11 07:02:14;;;;;;;3.80;1.92;;;;;;;4.87;75.10;99244.06;5076961;28;20048;-79
2022/04/11 07:04:41;;;;;;;2.38;1.90;;;;;;;4.89;74.99;99240.63;5095097;28;20056;-77
2022/04/11 07:07:08;;;;;;;6.97;2.60;;;;;;;4.92;75.33;99261.38;5093472;28;20089;-80
2022/04/11 07:09:36;;;;;;;4.05;2.30;;;;;;;4.93;75.61;99252.78;5092877;28;20093;-78
2022/04/11 07:12:03;;;;;;;3.65;2.15;;;;;;;4.82;75.13;99222.38;5092865;28;20517;-78
2022/04/11 07:14:30;;;;;;;4.97;2.42;;;;;;;4.97;74.91;99258.91;5094356;28;20051;-77
2022/04/11 07:17:05;;;;;;;4.68;2.30;;;;;;;4.94;75.38;99248.47;5094131;28;20078;-79
2022/04/11 07:19:32;;;;;;;5.10;2.22;;;;;;;4.99;75.62;99239.09;5094654;28;20056;-78
2022/04/11 07:21:59;;;;;;;3.83;2.50;;;;;;;4.81;75.86;99197.38;5094055;28;20058;-77
2022/04/11 07:24:26;;;;;;;4.43;2.42;;;;;;;4.96;75.45;99214.88;5080106;28;20066;-78
2022/04/11 07:26:53;;;;;;;4.03;2.80;;;;;;;4.87;75.83;99195.75;5097551;28;20075;-78
2022/04/11 07:29:20;;;;;;;5.68;2.42;;;;;;;4.96;75.54;99207.97;5094280;28;20055;-79
2022/04/11 07:31:47;;;;;;;4.47;2.67;;;;;;;4.90;76.50;99224.28;5093843;28;20444;-80
2022/04/11 07:34:15;;;;;;;4.95;2.35;;;;;;;4.84;76.47;99234.53;5092809;28;20048;-77
2022/04/11 07:36:42;;;;;;;8.50;3.10;;;;;;;4.80;76.81;99226.69;5092128;28;20040;-80
2022/04/11 07:39:09;;;;;;;7.93;3.00;;;;;;;5.07;76.59;99253.00;5073148;28;20044;-79
2022/04/11 07:41:36;;;;;;;8.52;3.70;;;;;;;5.19;76.62;99243.69;5093367;28;20421;-77
2022/04/11 07:44:03;;;;;;;6.03;3.15;;;;;;;5.33;76.46;99271.53;5094454;28;20052;-80
2022/04/11 07:46:30;;;;;;;12.07;6.00;;;;;;;5.49;76.46;99277.81;5094195;28;20060;-78
2022/04/11 07:48:57;;;;;;;8.52;4.30;;;;;;;5.62;76.16;99252.09;5092638;28;20052;-79
2022/04/11 07:51:24;;;;;;;5.65;3.53;;;;;;;5.65;75.88;99213.25;5094726;28;20074;-78
2022/04/11 07:53:51;;;;;;;10.20;4.18;;;;;;;6.02;74.68;99224.09;5094426;28;20082;-79
2022/04/11 07:56:18;;;;;;;6.68;3.35;;;;;;;6.25;74.25;99233.00;5093824;28;20052;-79
2022/04/11 07:58:45;;;;;;;6.88;3.33;;;;;;;6.33;74.38;99233.09;5100355;28;20135;-79
2022/04/11 08:01:19;;;;;;;6.78;3.50;;;;;;;6.41;74.08;99227.97;5091363;28;20051;-80
2022/04/11 08:03:47;;;;;;;5.13;3.30;;;;;;;6.53;73.89;99234.13;5072365;28;20497;-82
2022/04/11 08:06:15;;;;;;;5.90;3.25;;;;;;;6.50;73.34;99212.50;5093465;28;20055;-78
2022/04/11 08:08:46;;;;;;;3.92;2.95;;;;;;;6.54;73.58;99207.34;5092789;28;20143;-81
2022/04/11 08:11:16;;;;;;;9.05;3.88;;;;;;;6.40;73.70;99188.19;5092269;28;20106;-81
2022/04/11 08:13:48;;;;;;;7.30;2.97;;;;;;;6.35;73.58;99190.72;5093317;28;20052;-80
2022/04/11 08:16:15;;;;;;;6.65;3.28;;;;;;;6.29;74.01;99187.22;5092157;28;20059;-80
2022/04/11 08:18:42;;;;;;;8.35;3.00;;;;;;;6.40;74.34;99221.03;5092703;28;20051;-80
2022/04/11 08:21:09;;;;;;;7.38;3.00;;;;;;;6.29;73.94;99190.66;5093935;28;20055;-81
2022/04/11 08:23:36;;;;;;;6.97;3.15;;;;;;;6.29;73.82;99185.47;5093620;28;20067;-81
2022/04/11 08:26:03;;;;;;;5.53;2.90;;;;;;;6.28;74.10;99191.53;5092121;28;20051;-82
2022/04/11 08:28:30;;;;;;;6.05;3.10;;;;;;;6.12;74.08;99185.31;5093403;28;20051;-82
2022/04/11 08:30:57;;;;;;;7.85;3.67;;;;;;;6.12;74.31;99195.69;5095351;28;20052;-81
2022/04/11 08:33:25;;;;;;;7.28;3.17;;;;;;;6.05;74.62;99204.25;5093444;28;20150;-81
2022/04/11 08:35:52;;;;;;;6.65;3.22;;;;;;;6.03;74.75;99194.72;5092151;28;20056;-82
2022/04/11 08:38:19;;;;;;;8.32;3.80;;;;;;;5.93;74.89;99184.19;5093779;28;20052;-81
2022/04/11 08:40:46;;;;;;;6.07;3.90;;;;;;;6.04;74.74;99168.78;5096058;28;20083;-80
2022/04/11 08:43:14;;;;;;;8.50;4.00;;;;;;;6.27;74.78;99194.97;5092639;28;20147;-81
2022/04/11 08:45:41;;;;;;;5.85;3.70;;;;;;;6.21;74.21;99194.91;5093416;28;20113;-79
2022/04/11 08:48:09;;;;;;;8.65;3.70;;;;;;;6.14;74.37;99183.59;5094058;28;20066;-80
2022/04/11 08:50:36;;;;;;;12.73;4.40;;;;;;;6.24;74.34;99202.75;5093222;28;20060;-81
2022/04/11 08:53:03;;;;;;;9.32;3.97;;;;;;;5.87;74.54;99129.72;5091572;28;20079;-81
2022/04/11 08:55:31;;;;;;;8.73;4.13;;;;;;;6.11;74.37;99160.25;5093261;28;20138;-79
2022/04/11 08:57:59;;;;;;;12.93;4.72;;;;;;;5.94;75.08;99172.13;5093030;28;20059;-79
2022/04/11 09:00:26;;;;;;;9.20;4.38;;;;;;;5.92;75.30;99184.22;5093326;28;20079;-80
2022/04/11 09:02:53;;;;;;;10.05;4.88;;;;;;;6.02;75.29;99193.84;5092240;28;20055;-79
2022/04/11 09:05:24;;;;;;;12.88;5.70;;;;;;;5.83;75.12;99143.50;5093815;28;20102;-81
2022/04/11 09:07:56;;;;;;;12.75;5.97;;;;;;;6.20;74.68;99176.75;5102894;28;20447;-81
2022/04/11 09:10:32;;;;;;;14.38;5.70;;;;;;;6.06;75.03;99194.75;5106521;28;20048;-80
2022/04/11 09:13:02;;;;;;;13.50;5.63;;;;;;;5.90;75.31;99189.38;5100420;28;20056;-78
2022/04/11 09:15:39;;;;;;;12.90;5.40;;;;;;;5.67;75.69;99185.63;5094720;28;20143;-82
2022/04/11 09:18:06;;;;;;;12.98;5.80;;;;;;;5.47;77.14;99175.03;5080820;28;20063;-78
2022/04/11 09:20:33;;;;;;;11.73;5.75;;;;;;;5.50;76.89;99143.97;5075522;28;20056;-80
2022/04/11 09:23:00;;;;;;;15.13;6.50;;;;;;;5.62;76.70;99144.13;5072161;28;20435;-82
2022/04/11 09:25:30;;;;;;;16.23;7.07;;;;;;;5.60;77.51;99139.78;5073878;28;20052;-80
2022/04/11 09:28:09;;;;;;;15.75;6.47;;;;;;;5.68;76.93;99144.19;5071843;28;20049;-80
2022/04/11 09:30:38;;;;;;;19.13;7.18;;;;;;;5.84;76.93;99162.50;5073908;28;20072;-81
2022/04/11 09:33:07;;;;;;;15.00;7.22;;;;;;;5.84;76.42;99165.09;5073171;28;20532;-83
2022/04/11 09:35:36;;;;;;;14.00;6.70;;;;;;;5.71;76.99;99141.63;5071917;28;20056;-84
2022/04/11 09:38:08;;;;;;;13.90;7.07;;;;;;;5.82;77.24;99180.63;5073717;28;20055;-80
2022/04/11 09:40:55;;;;;;;18.52;8.57;;;;;;;6.00;77.58;99174.84;5073880;28;20064;-79
2022/04/11 09:43:24;;;;;;;12.40;6.15;;;;;;;6.13;76.76;99165.44;5072297;28;20052;-78
2022/04/11 09:45:52;;;;;;;17.27;7.90;;;;;;;6.00;77.17;99174.84;5070395;28;20142;-79
2022/04/11 09:48:24;;;;;;;16.27;7.10;;;;;;;5.92;77.10;99158.28;5073150;28;20501;-80
2022/04/11 09:50:53;;;;;;;18.17;7.53;;;;;;;6.27;76.65;99192.38;5073202;28;20057;-83
2022/04/11 09:53:23;;;;;;;17.02;7.47;;;;;;;6.33;76.26;99187.25;5073583;28;20494;-80
2022/04/11 09:55:53;;;;;;;16.77;8.32;;;;;;;6.25;76.18;99183.72;5072337;28;20413;-78
2022/04/11 09:58:23;;;;;;;14.57;7.10;;;;;;;6.37;76.07;99221.88;5077394;28;20147;-82
2022/04/11 10:00:51;;;;;;;20.83;9.02;;;;;;;6.30;76.29;99228.75;5075510;28;20135;-79
2022/04/11 10:03:22;;;;;;;17.90;8.43;;;;;;;6.31;76.03;99225.28;5076474;28;20052;-81
2022/04/11 10:05:50;;;;;;;22.30;8.70;;;;;;;6.18;76.06;99176.72;5077100;28;20053;-77
2022/04/11 10:08:22;;;;;;;17.45;8.95;;;;;;;6.54;75.35;99224.66;5077144;28;20422;-77
2022/04/11 10:10:50;;;;;;;17.50;8.38;;;;;;;6.50;76.00;99238.44;5077757;28;20044;-80
2022/04/11 10:13:17;;;;;;;17.00;7.90;;;;;;;6.62;75.50;99248.06;5082969;28;20505;-79
2022/04/11 10:15:47;;;;;;;15.07;7.88;;;;;;;6.74;75.39;99254.25;5080137;28;20047;-80
2022/04/11 10:18:19;;;;;;;14.30;7.30;;;;;;;6.59;75.06;99233.34;5097466;28;20052;-79
2022/04/11 10:20:49;;;;;;;15.00;7.22;;;;;;;6.69;75.22;99232.56;5096484;28;20134;-81
2022/04/11 10:23:51;;;;;;;17.67;7.90;;;;;;;6.71;75.29;99228.28;5096554;28;20070;-78
2022/04/11 10:26:19;;;;;;;14.40;7.65;;;;;;;6.83;74.78;99229.22;5086857;28;20068;-80
2022/04/11 10:28:53;;;;;;;17.35;9.38;;;;;;;6.84;75.04;99203.28;5085441;28;20057;-78
2022/04/11 10:31:20;;;;;;;14.55;7.10;;;;;;;6.73;75.06;99205.78;5072091;28;20083;-79
2022/04/11 10:33:55;;;;;;;14.13;6.53;;;;;;;6.73;75.17;99179.84;5090604;28;20111;-78
2022/04/11 10:36:35;;;;;;;11.50;6.07;;;;;;;6.62;75.68;99184.03;5085211;28;20048;-81
2022/04/11 10:39:14;;;;;;;;;;;;;;;6.39;75.89;99177.78;5077404;28;20049;-80
2022/04/11 10:41:54;;;;;;;14.05;6.70;;;;;;;6.46;76.04;99182.19;5074903;28;19978;-81
2022/04/11 10:44:33;;;;;;;15.55;7.07;;;;;;;6.66;75.37;99187.53;5075314;28;20053;-80
2022/04/11 10:47:10;;;;;;;13.90;6.68;;;;;;;6.89;74.99;99187.72;5084308;28;20117;-82
2022/04/11 10:49:49;;;;;;;13.60;7.18;;;;;;;6.93;75.07;99189.50;5095264;28;20052;-80
2022/04/11 10:52:35;;;;;;;15.20;6.90;;;;;;;6.96;74.72;99173.94;5086291;28;20056;-82
2022/04/11 10:55:20;;;;;;;14.13;6.95;;;;;;;7.16;73.16;99153.28;5094745;28;20138;-81
2022/04/11 10:57:50;;;;;;;15.98;7.35;;;;;;;7.35;73.40;99182.81;5092940;28;20051;-81
2022/04/11 11:00:24;;;;;;;19.48;7.43;;;;;;;7.00;73.82;99172.22;5094625;28;20051;-79
2022/04/11 11:02:52;;;;;;;14.75;8.20;;;;;;;6.84;75.00;99198.09;5094907;28;20052;-79
2022/04/11 11:05:29;;;;;;;17.42;7.10;;;;;;;6.78;74.97;99200.63;5093068;28;20044;-79
2022/04/11 11:08:09;;;;;;;17.60;7.97;;;;;;;6.67;75.02;99203.13;5094456;28;20063;-79
2022/04/11 11:10:43;;;;;;;15.68;8.43;;;;;;;6.64;75.48;99195.31;5094326;28;20492;-78
2022/04/11 11:13:35;;;;;;;17.58;8.43;;;;;;;6.56;75.73;99191.81;5091430;28;20048;-79
2022/04/11 11:16:07;;;;;;;16.65;8.23;;;;;;;6.63;75.42;99195.31;5090740;28;20040;-80
2022/04/11 11:18:47;;;;;;;;;;;;;;;6.25;75.73;99178.53;5094873;28;20139;-79
2022/04/11 11:21:21;;;;;;;21.30;9.83;;;;;;;6.35;76.31;99175.16;5093416;28;20300;-80
2022/04/11 11:24:02;;;;;;;17.98;10.32;;;;;;;6.35;76.34;99187.28;5093057;28;20304;-81
2022/04/11 11:26:45;;;;;;;21.13;11.07;;;;;;;6.41;75.97;99186.44;5093813;28;20126;-79
2022/04/11 11:29:16;;;;;;;22.40;11.25;;;;;;;6.27;76.24;99171.63;5093502;28;20048;-81
2022/04/11 11:31:45;;;;;;;21.77;10.30;;;;;;;6.30;76.61;99200.22;5092457;28;20461;-79
2022/04/11 11:34:14;;;;;;;20.00;9.95;;;;;;;6.06;76.88;99193.00;5093869;28;20585;-79
2022/04/11 11:36:41;;;;;;;20.08;9.57;;;;;;;5.91;77.42;99165.16;5093806;28;20056;-80
2022/04/11 11:39:30;;;;;;;18.35;9.13;;;;;;;6.13;76.70;99157.66;5092355;28;20056;-79
2022/04/11 11:42:03;;;;;;;20.92;10.02;;;;;;;6.29;76.45;99180.28;5093867;28;20421;-79
2022/04/11 11:44:31;;;;;;;19.10;8.80;;;;;;;6.35;76.73;99177.75;5090406;28;20035;-80
2022/04/11 11:47:03;;;;;;;17.63;9.27;;;;;;;6.30;76.05;99161.31;5095017;28;20143;-80
2022/04/11 11:49:42;;;;;;;18.80;8.10;;;;;;;6.42;76.29;99170.03;5098330;28;20047;-79
2022/04/11 11:52:14;;;;;;;17.90;8.05;;;;;;;6.25;76.40;99162.09;5091499;28;20054;-82
2022/04/11 11:54:44;;;;;;;16.35;8.18;;;;;;;6.37;77.02;99180.38;5095314;28;20044;-80